Flight Track Log - Related Links

Times and Time Zones

All times are in EDT time to prevent confusion due to time zone crossing. See the CSC8974 flight status page for this flight to view local times or setup timezone preferences in your user account.

Time Position Orientation Groundspeed Altitude Reporting Facility
EDT Latitude Longitude Course Direction KTS MPH feet Rate Location/Type
Sat 07:00:43 AM 31.1553 121.7881 342° North 167 192 700  Level FlightAware ADS-B (ZSSL)
Sat 07:00:58 AM 31.1657 121.7840 343° North 167 192 1,300 2,400 Climbing FlightAware ADS-B (ZSSL)
Sat 07:01:13 AM 31.1780 121.7796 344° North 174 200 1,900 1,800 Climbing FlightAware ADS-B (ZSSL)
Sat 07:01:28 AM 31.1907 121.7751 344° North 195 224 2,200 1,029 Climbing FlightAware ADS-B (ZSSL)
Sat 07:01:48 AM 31.2086 121.7687 344° North 213 245 2,500 1,200 Climbing FlightAware ADS-B (ZSSL)
Sat 07:02:03 AM 31.2254 121.7624 343° North 252 290 2,900 2,200 Climbing FlightAware ADS-B (ZSSL)
Sat 07:02:18 AM 31.2419 121.7564 343° North 261 300 3,600 3,200 Climbing FlightAware ADS-B (ZSSL)
Sat 07:02:33 AM 31.2600 121.7496 343° North 265 305 4,500 3,400 Climbing FlightAware ADS-B (ZSSL)
Sat 07:02:48 AM 31.2771 121.7433 343° North 268 308 5,300 3,097 Climbing FlightAware ADS-B (ZSSL)
Sat 07:03:04 AM 31.2961 121.7363 343° North 273 314 6,100 3,100 Climbing FlightAware ADS-B (ZSSL)
Sat 07:03:48 AM 31.3513 121.7159 343° North 280 322 8,400 3,051 Climbing FlightAware ADS-B (ZSSL)
Sat 07:04:03 AM 31.3692 121.7092 343° North 282 325 9,100 2,085 Climbing FlightAware ADS-B (ZSSL)
Sat 07:06:09 AM 31.5283 121.6476 342° North 290 334 13,300 2,025 Climbing FlightAware ADS-B
Sat 07:09:17 AM 31.7522 121.3876 315° West 356 410 19,700 630 Climbing FlightAware ADS-B
Sat 07:32:48 AM 31.8217 118.3700 246° West 456 525 30,100 433 Climbing FlightAware ADS-B
Sat 07:33:19 AM 31.8053 118.3277 246° West 456 525 30,100  Level FlightAware ADS-B
Sat 07:33:52 AM 31.7767 118.2541 255° West 455 524 30,100  Level FlightAware ADS-B
Sat 07:34:29 AM 31.7523 118.1354 265° West 454 522 30,100  Level FlightAware ADS-B
Sat 07:35:16 AM 31.7510 118.0212 273° West 453 521 30,100  Level FlightAware ADS-B
Sat 07:36:16 AM 31.7716 117.8798 282° West 452 520 30,100  Level FlightAware ADS-B
Sat 07:38:21 AM 31.8069 117.5706 275° West 454 522 30,100  Level FlightAware ADS-B
Sat 07:40:48 AM 31.7783 117.2153 275° West 454 522 30,100  Level FlightAware ADS-B
Sat 07:41:04 AM 31.7608 117.1834 235° Southwest 460 529 30,100  Level FlightAware ADS-B
Sat 07:41:44 AM 31.7087 117.1026 233° Southwest 460 529 30,100  Level FlightAware ADS-B
Sat 07:44:00 AM 31.6755 116.8773 260° West  Level Estimated
Sat 07:45:00 AM 31.6608 116.7780 260° West  Level Estimated
Sat 07:46:00 AM 31.6459 116.6787 260° West  Level Estimated
Sat 07:47:00 AM 31.6310 116.5795 260° West  Level Estimated
Sat 07:48:00 AM 31.6160 116.4803 260° West  Level Estimated
Sat 07:49:00 AM 31.6010 116.3811 260° West  Level Estimated
Sat 07:50:00 AM 31.5858 116.2820 260° West  Level Estimated
Sat 07:51:00 AM 31.5706 116.1828 260° West  Level Estimated
Sat 07:52:00 AM 31.5553 116.0838 260° West  Level Estimated
Sat 07:53:00 AM 31.5399 115.9847 260° West  Level Estimated
Sat 07:54:00 AM 31.5245 115.8857 260° West  Level Estimated
Sat 07:55:00 AM 31.5090 115.7867 260° West  Level Estimated
Sat 07:56:00 AM 31.4934 115.6878 260° West  Level Estimated
Sat 07:57:00 AM 31.4777 115.5888 259° West  Level Estimated
Sat 07:58:00 AM 31.4619 115.4899 259° West  Level Estimated
Sat 07:59:00 AM 31.4461 115.3911 259° West  Level Estimated
Sat 08:00:00 AM 31.4302 115.2923 259° West  Level Estimated
Sat 08:01:00 AM 31.4142 115.1935 259° West  Level Estimated
Sat 08:02:00 AM 31.3982 115.0947 259° West  Level Estimated
Sat 08:03:00 AM 31.3820 114.9960 259° West  Level Estimated
Sat 08:04:00 AM 31.3658 114.8973 259° West  Level Estimated
Sat 08:05:00 AM 31.3495 114.7987 259° West  Level Estimated
Sat 08:06:00 AM 31.3332 114.7001 259° West  Level Estimated
Sat 08:07:00 AM 31.3167 114.6015 259° West  Level Estimated
Sat 08:08:00 AM 31.3002 114.5029 259° West  Level Estimated
Sat 08:09:00 AM 31.2836 114.4044 259° West  Level Estimated
Sat 08:10:00 AM 31.2670 114.3059 259° West  Level Estimated
Sat 08:11:00 AM 31.2503 114.2075 259° West  Level Estimated
Sat 08:12:00 AM 31.2334 114.1091 259° West  Level Estimated
Sat 08:13:00 AM 31.2166 114.0107 259° West  Level Estimated
Sat 08:14:00 AM 31.1996 113.9124 259° West  Level Estimated
Sat 08:15:00 AM 31.1826 113.8141 259° West  Level Estimated
Sat 08:16:00 AM 31.1655 113.7158 259° West  Level Estimated
Sat 08:17:00 AM 31.1483 113.6176 258° West  Level Estimated
Sat 08:18:00 AM 31.1310 113.5194 258° West  Level Estimated
Sat 08:19:00 AM 31.1137 113.4212 258° West  Level Estimated
Sat 08:20:00 AM 31.0963 113.3231 258° West  Level Estimated
Sat 08:21:00 AM 31.0788 113.2250 258° West  Level Estimated
Sat 08:22:00 AM 31.0613 113.1269 258° West  Level Estimated
Sat 08:23:00 AM 31.0436 113.0289 258° West  Level Estimated
Sat 08:24:00 AM 31.0259 112.9309 258° West  Level Estimated
Sat 08:25:00 AM 31.0082 112.8330 258° West  Level Estimated
Sat 08:26:00 AM 30.9903 112.7351 258° West  Level Estimated
Sat 08:27:00 AM 30.9724 112.6372 258° West  Level Estimated
Sat 08:28:00 AM 30.9544 112.5394 258° West  Level Estimated
Sat 08:29:00 AM 30.9363 112.4416 258° West  Level Estimated
Sat 08:30:00 AM 30.9181 112.3438 258° West  Level Estimated
Sat 08:31:00 AM 30.8999 112.2461 258° West  Level Estimated
Sat 08:32:00 AM 30.8816 112.1484 258° West  Level Estimated
Sat 08:33:00 AM 30.8633 112.0508 258° West  Level Estimated
Sat 08:34:00 AM 30.8448 111.9531 258° West  Level Estimated
Sat 08:35:00 AM 30.8263 111.8556 258° West  Level Estimated
Sat 08:36:00 AM 30.8077 111.7580 258° West  Level Estimated
Sat 08:37:00 AM 30.7891 111.6606 257° West  Level Estimated
Sat 08:38:00 AM 30.7703 111.5631 257° West  Level Estimated
Sat 08:39:00 AM 30.7516 111.4657 257° West  Level Estimated
Sat 08:40:00 AM 30.7327 111.3683 257° West  Level Estimated
Sat 08:41:00 AM 30.7137 111.2709 257° West  Level Estimated
Sat 08:42:00 AM 30.6947 111.1736 257° West  Level Estimated
Sat 08:43:00 AM 30.6756 111.0764 257° West  Level Estimated
Sat 08:44:00 AM 30.6564 110.9791 257° West  Level Estimated
Sat 08:45:00 AM 30.6372 110.8819 257° West  Level Estimated
Sat 08:46:00 AM 30.6179 110.7848 257° West  Level Estimated
Sat 08:47:00 AM 30.5985 110.6877 257° West  Level Estimated
Sat 08:48:00 AM 30.5790 110.5906 257° West  Level Estimated
Sat 08:49:00 AM 30.5595 110.4936 257° West  Level Estimated
Sat 08:50:00 AM 30.5399 110.3966 257° West  Level Estimated
Sat 08:51:00 AM 30.5202 110.2996 257° West  Level Estimated
Sat 08:52:00 AM 30.5005 110.2027 257° West  Level Estimated
Sat 08:53:00 AM 30.4807 110.1058 257° West  Level Estimated
Sat 08:54:00 AM 30.4608 110.0090 257° West  Level Estimated
Sat 08:55:00 AM 30.4408 109.9122 257° West  Level Estimated
Sat 08:56:00 AM 30.4208 109.8154 257° West  Level Estimated
Sat 08:57:00 AM 30.4007 109.7187 256° West  Level Estimated
Sat 08:58:00 AM 30.3805 109.6220 256° West  Level Estimated
Sat 08:59:00 AM 30.3603 109.5254 256° West  Level Estimated
Sat 09:00:00 AM 30.3400 109.4288 256° West  Level Estimated
Sat 09:01:00 AM 30.3196 109.3322 256° West  Level Estimated
Sat 09:02:00 AM 30.2991 109.2357 256° West  Level Estimated
Sat 09:03:00 AM 30.2786 109.1392 256° West  Level Estimated
Sat 09:04:00 AM 30.2580 109.0428 256° West  Level Estimated
Sat 09:05:00 AM 30.2373 108.9464 256° West  Level Estimated
Sat 09:06:00 AM 30.2166 108.8500 256° West  Level Estimated
Sat 09:07:00 AM 30.1958 108.7537 256° West  Level Estimated
Sat 09:08:00 AM 30.1749 108.6574 256° West  Level Estimated
Sat 09:09:00 AM 30.1540 108.5612 256° West  Level Estimated
Sat 09:10:00 AM 30.1329 108.4650 256° West  Level Estimated
Sat 09:11:00 AM 30.1119 108.3688 256° West  Level Estimated
Sat 09:12:00 AM 30.0907 108.2727 256° West  Level Estimated
Sat 09:13:00 AM 30.0695 108.1767 256° West  Level Estimated
Sat 09:14:00 AM 30.0482 108.0806 256° West  Level Estimated
Sat 09:15:00 AM 30.0268 107.9846 256° West  Level Estimated
Sat 09:16:00 AM 30.0054 107.8887 256° West  Level Estimated
Sat 09:17:00 AM 29.9839 107.7928 256° West  Level Estimated
Sat 09:18:00 AM 29.9623 107.6969 255° West  Level Estimated
Sat 09:19:00 AM 29.9406 107.6011 255° West  Level Estimated
Sat 09:20:00 AM 29.9189 107.5053 255° West  Level Estimated
Sat 09:21:00 AM 29.8971 107.4096 255° West  Level Estimated
Sat 09:22:00 AM 29.8753 107.3139 255° West  Level Estimated
Sat 09:23:00 AM 29.8533 107.2182 255° West  Level Estimated
Sat 09:24:00 AM 29.8314 107.1226 255° West  Level Estimated
Sat 09:25:00 AM 29.8093 107.0270 255° West  Level Estimated
Sat 09:26:00 AM 29.7871 106.9315 255° West  Level Estimated
Sat 09:27:00 AM 29.7649 106.8360 255° West  Level Estimated
Sat 09:28:00 AM 29.7427 106.7406 255° West  Level Estimated
Sat 09:29:00 AM 29.7204 106.6452 255° West  Level Estimated
Sat 09:30:00 AM 29.7194 106.6410 255° West  Level Estimated
Sat 09:31:00 AM 29.7194 106.6410 North  Level Estimated
Sat 09:32:00 AM 29.7194 106.6410 North  Level Estimated
Sat 09:33:00 AM 29.7194 106.6410 North  Level Estimated
Sat 09:34:00 AM 29.7194 106.6410 North  Level Estimated
Sat 09:35:00 AM 29.7194 106.6410 North  Level Estimated
Sat 09:36:00 AM 29.7194 106.6410 North  Level Estimated
Sat 09:37:00 AM 29.7194 106.6410 North  Level Estimated
Sat 09:38:00 AM 29.7194 106.6410 North  Level Estimated
Sat 09:39:00 AM 29.7194 106.6410 North  Level Estimated
Sat 09:40:00 AM 29.7194 106.6410 North  Level Estimated
Sat 09:41:00 AM 29.7194 106.6410 North  Level Estimated
Sat 09:42:00 AM 29.7194 106.6410 North  Level Estimated
Sat 09:43:00 AM 29.7194 106.6410 North  Level Estimated
Sat 09:44:00 AM 29.7194 106.6410 North  Level Estimated
Sat 09:45:00 AM 29.7194 106.6410 North  Level Estimated
Sat 09:46:00 AM 29.7194 106.6410 North  Level Estimated
Sat 09:47:00 AM 29.7194 106.6410 North  Level Estimated
Sat 09:48:00 AM 29.7194 106.6410 North  Level Estimated
Sat 09:49:00 AM 29.7194 106.6410 North  Level Estimated

Login

Don't have an account? Register now (free) for customized features, flight alerts, and more!